עמוד ראשי
METAR-TAF:

METAR-TAF

שדות תעופה :

Santiago de los Caballeros, הרפובליקה הדומיניקאנית

קו רוחב: 19-27N, קו אורך: 070-42W, גובה: 183מטר

תצפית מזג אוויר נוכחית

הדו"ח נערך לפני 46דקות, בשעה 01:00 UTC
רוח 5קשר מכיוון מזרח/דרום-מזרח, משתנה בין מזרח ו דרום-מזרח
טמפרטורת 28 צלסיוס
לחות 84%
לחץ 1016 hPa
ראות 10 קילומטר או יותר
מעט עננים בגובה 2000רגל

METAR: MDST 130100Z 11005KT 080V140 9999 FEW020 28/25 Q1016

זמן: 21:46 (01:46 UTC)

תחזית

הדו"ח נערך לפני 3 שעות ו 46דקות, בשעה 22:00 UTC
תחזית בתוקף מ 13 ב 00 UTC עד 14 ב 00 UTC
רוח 4קשר מכיוון מזרח
ראות 10 קילומטר או יותר
מעט עננים בגובה 2000רגל
עננים פזורים בגובה 30000רגל
זמנית מ -
13 ב 08 UTC עד 13 ב 11 UTC
ראות: 5000מטר
עננים בינוניים בגובה 1200רגל
אד,

TAF: MDST 122200Z 1300/1400 09004KT 9999 FEW020 SCT300 TEMPO 1308/1311 5000 BR BKN012

תצפיות ותחזיות מזג אוויר לגבי יותר מ- 4,000 שדות תעופה ברחבי העולם. דוחות METAR ו- TAF.

התחנות הזמינות מסומנות בנקודות צהובות ואדומות על גבי המפה.

העבר את העכבר לנקודה הצבעונית על מנת לראות את שם התחנה.

לאחר מכן, לחץ כדי לראות את תוכן ואת תחזיות מזג האוויר.

כדי לשנות את המפה: לחץ על הכפתורים הירוקים עם הפלוס השחור כדי להתקרב; על הכפתור הירוק עם המקף כדי להתרחק; או בחיצים הירוקים למפות סמוכות.


METAR-TAF: